Time;durP1;ratioP1;P1;durP2;ratioP2;P2;SDS_P1;SDS_P2;PMS_P1;PMS_P2;Temp;Humidity;BMP_temperature;BMP_pressure;BME280_temperature;BME280_humidity;BME280_pressure;Samples;Min_cycle;Max_cycle;Signal;HPM_P1;HPM_P2
2023/05/26 00:01:47;;;;;;;8.77;4.75;;;;;;;;;;5083458;28;20017;-75
2023/05/26 00:04:16;;;;;;;12.35;4.82;;;;;;;;;;5083483;28;20028;-80
2023/05/26 00:06:43;;;;;;;7.90;3.92;;;;;;;;;;5082975;28;20107;-76
2023/05/26 00:09:09;;;;;;;8.88;4.32;;;;;;;;;;5083368;28;20029;-79
2023/05/26 00:11:34;;;;;;;10.25;4.90;;;;;;;;;;5083275;28;20443;-79
2023/05/26 00:14:00;;;;;;;7.35;4.13;;;;;;;;;;5078701;28;20028;-82
2023/05/26 00:16:25;;;;;;;10.02;4.90;;;;;;;;;;5083120;28;20206;-81
2023/05/26 00:18:51;;;;;;;8.48;4.90;;;;;;;;;;5083022;28;20057;-81
2023/05/26 00:21:16;;;;;;;8.07;4.45;;;;;;;;;;5082563;28;20032;-81
2023/05/26 00:23:41;;;;;;;8.35;4.57;;;;;;;;;;5082839;28;20031;-82
2023/05/26 00:26:07;;;;;;;8.02;4.75;;;;;;;;;;5083113;28;20028;-81
2023/05/26 00:28:32;;;;;;;9.10;4.80;;;;;;;;;;5081432;28;20028;-81
2023/05/26 00:30:58;;;;;;;7.80;4.43;;;;;;;;;;5082852;28;20045;-81
2023/05/26 00:33:24;;;;;;;8.00;4.57;;;;;;;;;;5082979;28;20096;-81
2023/05/26 00:35:49;;;;;;;10.00;5.07;;;;;;;;;;5083193;28;20032;-79
2023/05/26 00:38:15;;;;;;;9.93;4.68;;;;;;;;;;5082514;28;20036;-82
2023/05/26 00:40:40;;;;;;;9.38;4.53;;;;;;;;;;5083110;28;20032;-80
2023/05/26 00:43:05;;;;;;;9.90;4.47;;;;;;;;;;5079585;28;20328;-80
2023/05/26 00:45:31;;;;;;;7.05;4.18;;;;;;;;;;5083288;28;20096;-81
2023/05/26 00:47:56;;;;;;;13.85;5.30;;;;;;;;;;5082819;28;20070;-81
2023/05/26 00:50:22;;;;;;;8.82;4.85;;;;;;;;;;5083295;28;20091;-73
2023/05/26 00:52:47;;;;;;;7.32;4.18;;;;;;;;;;5081352;28;20335;-81
2023/05/26 00:55:13;;;;;;;11.98;5.47;;;;;;;;;;5082994;28;20032;-81
2023/05/26 00:57:39;;;;;;;8.80;4.90;;;;;;;;;;5082542;28;20142;-78
2023/05/26 01:00:09;;;;;;;8.93;5.18;;;;;;;;;;5082895;28;20035;-77
2023/05/26 01:02:37;;;;;;;10.07;5.25;;;;;;;;;;5082732;28;20032;-81
2023/05/26 01:05:04;;;;;;;10.02;5.30;;;;;;;;;;5082972;28;20021;-81
2023/05/26 01:07:30;;;;;;;9.57;5.18;;;;;;;;;;5082312;28;20035;-80
2023/05/26 01:09:55;;;;;;;8.35;5.03;;;;;;;;;;5082113;28;20021;-81
2023/05/26 01:12:29;;;;;;;8.30;4.93;;;;;;;;;;5082588;28;20025;-81
2023/05/26 01:15:02;;;;;;;7.22;4.72;;;;;;;;;;5082516;28;20032;-75
2023/05/26 01:17:52;;;;;;;9.25;5.25;;;;;;;;;;5082197;28;20036;-81
2023/05/26 01:20:37;;;;;;;7.57;4.22;;;;;;;;;;5082544;28;20092;-78
2023/05/26 01:23:14;;;;;;;12.43;4.90;;;;;;;;;;5082017;28;20052;-75
2023/05/26 01:25:56;;;;;;;8.55;4.65;;;;;;;;;;5082422;28;20020;-78
2023/05/26 01:28:25;;;;;;;11.35;4.93;;;;;;;;;;5082197;28;20025;-80
2023/05/26 01:30:53;;;;;;;8.68;4.50;;;;;;;;;;5082132;28;20096;-72
2023/05/26 01:33:18;;;;;;;7.88;4.43;;;;;;;;;;5082046;28;20028;-78
2023/05/26 01:35:44;;;;;;;8.30;4.65;;;;;;;;;;5082232;28;20070;-81
2023/05/26 01:38:11;;;;;;;12.48;4.90;;;;;;;;;;5081509;28;20367;-78
2023/05/26 01:40:39;;;;;;;8.95;4.45;;;;;;;;;;5082242;28;20047;-73
2023/05/26 01:43:19;;;;;;;8.90;4.43;;;;;;;;;;5082023;28;20032;-81
2023/05/26 01:46:02;;;;;;;6.65;4.13;;;;;;;;;;5082058;28;20104;-80
2023/05/26 01:48:29;;;;;;;10.23;4.55;;;;;;;;;;5081730;28;20054;-82
2023/05/26 01:51:01;;;;;;;7.75;4.20;;;;;;;;;;5081843;28;20032;-82
2023/05/26 01:53:34;;;;;;;8.35;4.82;;;;;;;;;;5081357;28;20027;-82
2023/05/26 01:56:00;;;;;;;8.50;4.22;;;;;;;;;;5081931;28;20081;-82
2023/05/26 01:58:27;;;;;;;7.32;4.25;;;;;;;;;;5081377;28;20040;-81
2023/05/26 02:00:52;;;;;;;7.10;4.35;;;;;;;;;;5081538;28;20119;-82
2023/05/26 02:03:18;;;;;;;7.63;4.65;;;;;;;;;;5081259;28;20016;-81
2023/05/26 02:05:45;;;;;;;9.55;5.03;;;;;;;;;;5081198;28;20048;-81
2023/05/26 02:08:10;;;;;;;9.50;4.75;;;;;;;;;;5080548;28;20028;-81
2023/05/26 02:10:36;;;;;;;8.20;4.28;;;;;;;;;;5081151;28;20313;-81
2023/05/26 02:13:02;;;;;;;8.45;4.53;;;;;;;;;;5080977;28;20197;-81
2023/05/26 02:15:28;;;;;;;8.38;4.38;;;;;;;;;;5080153;28;20021;-82
2023/05/26 02:17:54;;;;;;;8.90;4.53;;;;;;;;;;5080782;28;20028;-81
2023/05/26 02:20:20;;;;;;;8.55;4.35;;;;;;;;;;5080837;28;20067;-81
2023/05/26 02:22:46;;;;;;;8.32;4.50;;;;;;;;;;5079633;28;20021;-81
2023/05/26 02:25:11;;;;;;;7.47;4.38;;;;;;;;;;5080634;28;20039;-81
2023/05/26 02:27:36;;;;;;;6.43;4.40;;;;;;;;;;5080584;28;20039;-81
2023/05/26 02:30:02;;;;;;;7.80;4.30;;;;;;;;;;5080728;28;20020;-81
2023/05/26 02:32:29;;;;;;;9.48;4.80;;;;;;;;;;5080784;28;20012;-81
2023/05/26 02:34:56;;;;;;;8.07;4.85;;;;;;;;;;5080611;28;20016;-76
2023/05/26 02:37:22;;;;;;;7.20;4.47;;;;;;;;;;5078545;28;20060;-79
2023/05/26 02:39:47;;;;;;;7.60;4.50;;;;;;;;;;5080522;28;20209;-81
2023/05/26 02:42:12;;;;;;;8.30;4.68;;;;;;;;;;5080362;28;20028;-81
2023/05/26 02:44:38;;;;;;;7.32;4.53;;;;;;;;;;5080404;28;20032;-78
2023/05/26 02:47:03;;;;;;;8.52;4.53;;;;;;;;;;5080817;28;20024;-81
2023/05/26 02:49:29;;;;;;;10.25;4.97;;;;;;;;;;5080708;28;20032;-81
2023/05/26 02:51:54;;;;;;;10.05;5.40;;;;;;;;;;5080407;28;20028;-76
2023/05/26 02:54:19;;;;;;;7.03;4.43;;;;;;;;;;5080717;28;20154;-80
2023/05/26 02:56:45;;;;;;;7.72;4.68;;;;;;;;;;5080650;28;20039;-82
2023/05/26 02:59:11;;;;;;;8.02;4.57;;;;;;;;;;5080101;28;20113;-76
2023/05/26 03:01:37;;;;;;;9.18;4.85;;;;;;;;;;5080617;28;20107;-81
2023/05/26 03:04:02;;;;;;;7.00;4.53;;;;;;;;;;5080494;28;20025;-81
2023/05/26 03:06:27;;;;;;;10.73;4.82;;;;;;;;;;5080322;28;20028;-81
2023/05/26 03:08:53;;;;;;;8.75;4.80;;;;;;;;;;5080212;28;20378;-81
2023/05/26 03:11:18;;;;;;;7.53;4.68;;;;;;;;;;5080549;28;20095;-81
2023/05/26 03:13:44;;;;;;;11.02;5.15;;;;;;;;;;5080403;28;20024;-81
2023/05/26 03:16:10;;;;;;;8.50;4.28;;;;;;;;;;5079020;28;20033;-80
2023/05/26 03:18:36;;;;;;;6.95;4.60;;;;;;;;;;5078924;28;20028;-81
2023/05/26 03:21:04;;;;;;;9.38;4.95;;;;;;;;;;5080238;28;20036;-78
2023/05/26 03:23:29;;;;;;;9.10;5.20;;;;;;;;;;5078666;28;20070;-80
2023/05/26 03:25:57;;;;;;;8.73;5.20;;;;;;;;;;5080377;28;20039;-81
2023/05/26 03:28:23;;;;;;;7.28;4.85;;;;;;;;;;5080288;28;20033;-78
2023/05/26 03:30:48;;;;;;;7.70;4.65;;;;;;;;;;5080146;28;20034;-82
2023/05/26 03:33:14;;;;;;;8.00;4.78;;;;;;;;;;5079758;28;20020;-75
2023/05/26 03:35:39;;;;;;;12.15;4.97;;;;;;;;;;5080191;28;20032;-81
2023/05/26 03:38:05;;;;;;;7.53;4.53;;;;;;;;;;5079480;28;20319;-79
2023/05/26 03:40:30;;;;;;;8.68;5.15;;;;;;;;;;5079670;28;20032;-80
2023/05/26 03:42:55;;;;;;;11.00;5.63;;;;;;;;;;5080085;28;20043;-80
2023/05/26 03:45:21;;;;;;;8.63;5.10;;;;;;;;;;5080104;28;20051;-81
2023/05/26 03:47:46;;;;;;;8.35;5.03;;;;;;;;;;5080061;28;20032;-81
2023/05/26 03:50:12;;;;;;;11.05;5.20;;;;;;;;;;5079654;28;20033;-79
2023/05/26 03:52:37;;;;;;;12.80;5.22;;;;;;;;;;5079606;28;20021;-81
2023/05/26 03:55:04;;;;;;;9.60;5.28;;;;;;;;;;5079714;28;20147;-81
2023/05/26 03:57:30;;;;;;;9.00;4.80;;;;;;;;;;5079889;28;20067;-81
2023/05/26 03:59:55;;;;;;;13.55;5.68;;;;;;;;;;5079853;28;20030;-81
2023/05/26 04:02:20;;;;;;;9.80;5.40;;;;;;;;;;5080083;28;20208;-81
2023/05/26 04:04:46;;;;;;;12.25;5.10;;;;;;;;;;5079853;28;20035;-80
2023/05/26 04:07:11;;;;;;;12.80;5.45;;;;;;;;;;5079605;28;20024;-81
2023/05/26 04:09:37;;;;;;;10.35;5.07;;;;;;;;;;5079735;28;20317;-81
2023/05/26 04:12:02;;;;;;;13.32;5.38;;;;;;;;;;5079824;28;20092;-81
2023/05/26 04:14:28;;;;;;;13.07;5.90;;;;;;;;;;5079942;28;20154;-81
2023/05/26 04:16:53;;;;;;;9.57;4.80;;;;;;;;;;5079798;28;20028;-81
2023/05/26 04:19:19;;;;;;;11.90;5.30;;;;;;;;;;5079458;28;20028;-80
2023/05/26 04:21:45;;;;;;;7.72;4.63;;;;;;;;;;5079508;28;20036;-81
2023/05/26 04:24:11;;;;;;;7.53;4.32;;;;;;;;;;5079466;28;20036;-81
2023/05/26 04:26:37;;;;;;;11.68;4.93;;;;;;;;;;5079664;28;20099;-81
2023/05/26 04:29:03;;;;;;;8.70;4.45;;;;;;;;;;5079412;28;20240;-81
2023/05/26 04:31:29;;;;;;;8.65;4.55;;;;;;;;;;5079477;28;20024;-82
2023/05/26 04:33:58;;;;;;;9.55;5.28;;;;;;;;;;5079579;28;20296;-80
2023/05/26 04:36:26;;;;;;;10.70;4.82;;;;;;;;;;5079353;28;20028;-81
2023/05/26 04:38:51;;;;;;;8.43;4.93;;;;;;;;;;5079161;28;20055;-81
2023/05/26 04:41:18;;;;;;;8.70;4.82;;;;;;;;;;5079389;28;20033;-80
2023/05/26 04:43:44;;;;;;;8.20;5.18;;;;;;;;;;5079176;28;20099;-80
2023/05/26 04:46:10;;;;;;;8.02;5.15;;;;;;;;;;5080905;28;20091;-79
2023/05/26 04:48:39;;;;;;;10.57;5.18;;;;;;;;;;5082471;28;20028;-79
2023/05/26 04:51:08;;;;;;;9.95;5.93;;;;;;;;;;5082619;28;20120;-80
2023/05/26 04:53:34;;;;;;;9.88;5.20;;;;;;;;;;5082449;28;20052;-80
2023/05/26 04:56:01;;;;;;;9.75;5.28;;;;;;;;;;5082710;28;20316;-80
2023/05/26 04:58:27;;;;;;;10.55;5.55;;;;;;;;;;5082842;28;20036;-81
2023/05/26 05:00:54;;;;;;;11.93;5.50;;;;;;;;;;5082177;28;20054;-79
2023/05/26 05:03:21;;;;;;;17.02;6.32;;;;;;;;;;5082038;28;20042;-81
2023/05/26 05:05:46;;;;;;;12.13;5.30;;;;;;;;;;5082449;28;20028;-81
2023/05/26 05:08:12;;;;;;;10.77;6.15;;;;;;;;;;5081039;28;20032;-80
2023/05/26 05:10:37;;;;;;;11.30;6.18;;;;;;;;;;5082240;28;20074;-80
2023/05/26 05:13:03;;;;;;;12.48;6.28;;;;;;;;;;5079351;28;20044;-76
2023/05/26 05:15:29;;;;;;;12.68;6.05;;;;;;;;;;5079800;28;20493;-78
2023/05/26 05:17:54;;;;;;;11.20;5.40;;;;;;;;;;5082281;28;20036;-80
2023/05/26 05:20:19;;;;;;;11.05;5.80;;;;;;;;;;5081991;28;20090;-77
2023/05/26 05:22:45;;;;;;;11.60;5.63;;;;;;;;;;5081743;28;20036;-70
2023/05/26 05:25:10;;;;;;;8.98;6.28;;;;;;;;;;5082045;28;20052;-80
2023/05/26 05:27:36;;;;;;;10.70;5.43;;;;;;;;;;5082261;28;20224;-81
2023/05/26 05:30:02;;;;;;;8.55;5.43;;;;;;;;;;5082217;28;20099;-80
2023/05/26 05:32:27;;;;;;;10.45;5.47;;;;;;;;;;5082549;28;20336;-81
2023/05/26 05:34:52;;;;;;;10.98;6.25;;;;;;;;;;5081876;28;20032;-80
2023/05/26 05:37:18;;;;;;;10.20;5.88;;;;;;;;;;5081628;28;20108;-80
2023/05/26 05:39:43;;;;;;;11.85;5.82;;;;;;;;;;5081988;28;20244;-80
2023/05/26 05:42:09;;;;;;;11.23;6.50;;;;;;;;;;5081794;28;20036;-74
2023/05/26 05:44:35;;;;;;;10.55;6.43;;;;;;;;;;5082066;28;20021;-80
2023/05/26 05:47:00;;;;;;;14.05;7.20;;;;;;;;;;5081002;28;20032;-80
2023/05/26 05:49:26;;;;;;;12.48;7.15;;;;;;;;;;5081307;28;20100;-74
2023/05/26 05:51:51;;;;;;;10.00;6.22;;;;;;;;;;5080070;28;20120;-81
2023/05/26 05:54:16;;;;;;;12.27;7.10;;;;;;;;;;5081818;28;20216;-81
2023/05/26 05:56:42;;;;;;;11.88;7.45;;;;;;;;;;5081821;28;20035;-80
2023/05/26 05:59:07;;;;;;;11.32;7.05;;;;;;;;;;5081596;28;20059;-77
2023/05/26 06:01:33;;;;;;;10.77;6.85;;;;;;;;;;5081340;28;20032;-81
2023/05/26 06:03:58;;;;;;;13.20;6.97;;;;;;;;;;5081818;28;20029;-81
2023/05/26 06:06:23;;;;;;;13.40;7.53;;;;;;;;;;5081196;28;20205;-81
2023/05/26 06:08:49;;;;;;;18.70;6.80;;;;;;;;;;5081601;28;20040;-80
2023/05/26 06:11:14;;;;;;;11.95;6.80;;;;;;;;;;5081059;28;20047;-82
2023/05/26 06:13:40;;;;;;;10.45;7.03;;;;;;;;;;5077857;28;20084;-82
2023/05/26 06:16:05;;;;;;;15.07;7.40;;;;;;;;;;5080884;28;20347;-80
2023/05/26 06:18:31;;;;;;;10.38;6.80;;;;;;;;;;5080753;28;20107;-78
2023/05/26 06:20:56;;;;;;;10.93;7.07;;;;;;;;;;5074087;28;20024;-80
2023/05/26 06:23:22;;;;;;;10.73;7.00;;;;;;;;;;5080816;28;20029;-74
2023/05/26 06:25:47;;;;;;;15.63;7.57;;;;;;;;;;5081006;28;20091;-82
2023/05/26 06:28:12;;;;;;;18.02;7.72;;;;;;;;;;5082767;28;20109;-76
2023/05/26 06:30:38;;;;;;;13.82;7.57;;;;;;;;;;5077370;28;20213;-79
2023/05/26 06:33:03;;;;;;;14.15;7.65;;;;;;;;;;5070714;28;20028;-78
2023/05/26 06:35:29;;;;;;;10.27;6.95;;;;;;;;;;5076912;28;20029;-76
2023/05/26 06:37:54;;;;;;;13.50;7.78;;;;;;;;;;5072921;28;20052;-74
2023/05/26 06:40:19;;;;;;;13.15;7.20;;;;;;;;;;5075214;28;20017;-77
2023/05/26 06:42:45;;;;;;;13.55;7.50;;;;;;;;;;5080774;28;20033;-75
2023/05/26 06:45:10;;;;;;;12.18;7.93;;;;;;;;;;5079355;28;20339;-77
2023/05/26 06:47:35;;;;;;;14.63;8.35;;;;;;;;;;5070431;28;20040;-76
2023/05/26 06:50:01;;;;;;;14.45;8.02;;;;;;;;;;5080247;28;20055;-76
2023/05/26 06:52:27;;;;;;;19.15;8.52;;;;;;;;;;5080052;28;20090;-76
2023/05/26 06:54:53;;;;;;;13.75;9.00;;;;;;;;;;5080299;28;20040;-77
2023/05/26 06:57:18;;;;;;;16.98;9.48;;;;;;;;;;5080426;28;20025;-77
2023/05/26 06:59:44;;;;;;;21.73;10.80;;;;;;;;;;5080532;28;20038;-77
2023/05/26 07:02:09;;;;;;;16.48;10.23;;;;;;;;;;5079280;28;20373;-80
2023/05/26 07:04:35;;;;;;;18.27;10.45;;;;;;;;;;5074757;28;20015;-77
2023/05/26 07:07:00;;;;;;;18.00;11.18;;;;;;;;;;5079664;28;20231;-76
2023/05/26 07:09:26;;;;;;;15.02;10.23;;;;;;;;;;5080010;28;20024;-76
2023/05/26 07:11:51;;;;;;;20.42;11.32;;;;;;;;;;5079845;28;20121;-77
2023/05/26 07:14:16;;;;;;;16.77;10.60;;;;;;;;;;5079610;28;20021;-77
2023/05/26 07:16:42;;;;;;;19.20;11.00;;;;;;;;;;5058821;28;20029;-77
2023/05/26 07:19:07;;;;;;;15.73;10.05;;;;;;;;;;5057482;28;20048;-79
2023/05/26 07:21:33;;;;;;;16.77;9.98;;;;;;;;;;5058474;28;20233;-78
2023/05/26 07:23:58;;;;;;;21.63;10.70;;;;;;;;;;5060004;28;20092;-80
2023/05/26 07:26:24;;;;;;;17.58;10.48;;;;;;;;;;5060014;28;20068;-79
2023/05/26 07:28:50;;;;;;;17.85;10.45;;;;;;;;;;5059364;28;20032;-75
2023/05/26 07:31:16;;;;;;;18.10;10.70;;;;;;;;;;5059897;28;20029;-75
2023/05/26 07:33:41;;;;;;;18.33;10.18;;;;;;;;;;5055175;28;20028;-77
2023/05/26 07:36:07;;;;;;;15.30;9.10;;;;;;;;;;5052552;28;20055;-81
2023/05/26 07:38:32;;;;;;;15.88;9.68;;;;;;;;;;5067614;28;20059;-75
2023/05/26 07:40:57;;;;;;;15.27;8.82;;;;;;;;;;5064672;28;20024;-82
2023/05/26 07:43:26;;;;;;;15.20;8.73;;;;;;;;;;5047112;28;20100;-79
2023/05/26 07:45:51;;;;;;;13.32;8.38;;;;;;;;;;5047741;28;20035;-82
2023/05/26 07:48:17;;;;;;;13.48;8.20;;;;;;;;;;5048039;28;20116;-82
2023/05/26 07:50:42;;;;;;;15.55;8.38;;;;;;;;;;5047979;28;20106;-82
2023/05/26 07:53:08;;;;;;;11.65;8.40;;;;;;;;;;5047056;28;20037;-73
2023/05/26 07:55:33;;;;;;;13.00;8.18;;;;;;;;;;5048392;28;20114;-81
2023/05/26 07:57:58;;;;;;;14.25;8.02;;;;;;;;;;5048035;28;20029;-77
2023/05/26 08:00:24;;;;;;;13.13;7.72;;;;;;;;;;5048108;28;20025;-82
2023/05/26 08:02:50;;;;;;;14.95;7.82;;;;;;;;;;5045091;28;20029;-77
2023/05/26 08:05:15;;;;;;;13.73;7.18;;;;;;;;;;5048205;28;20084;-79
2023/05/26 08:07:40;;;;;;;11.88;7.80;;;;;;;;;;5047948;28;20029;-77
2023/05/26 08:10:06;;;;;;;10.15;6.68;;;;;;;;;;5048374;28;20036;-70
2023/05/26 08:12:32;;;;;;;10.85;6.65;;;;;;;;;;5047947;28;20029;-70
2023/05/26 08:14:57;;;;;;;11.90;7.10;;;;;;;;;;5047911;28;20028;-70
2023/05/26 08:17:26;;;;;;;11.65;7.28;;;;;;;;;;5047720;28;20026;-71
2023/05/26 08:19:51;;;;;;;11.63;6.63;;;;;;;;;;5048097;28;20036;-80
2023/05/26 08:22:16;;;;;;;10.27;7.40;;;;;;;;;;5051201;28;20025;-77
2023/05/26 08:24:42;;;;;;;13.52;7.70;;;;;;;;;;5052042;28;20025;-78
2023/05/26 08:27:08;;;;;;;12.07;7.07;;;;;;;;;;5051924;28;20033;-70
2023/05/26 08:29:33;;;;;;;10.35;6.63;;;;;;;;;;5051971;28;20025;-83
2023/05/26 08:31:58;;;;;;;11.10;6.97;;;;;;;;;;5051660;28;20048;-82
2023/05/26 08:34:24;;;;;;;10.60;6.85;;;;;;;;;;5050296;28;20034;-83
2023/05/26 08:36:49;;;;;;;10.30;6.70;;;;;;;;;;5050817;28;20507;-81
2023/05/26 08:39:15;;;;;;;12.15;6.75;;;;;;;;;;5051815;28;20039;-83
2023/05/26 08:42:05;;;;;;;13.95;6.10;;;;;;;;;;5051425;28;20033;-82
2023/05/26 08:44:31;;;;;;;;;;;;;;;;;;5047822;28;20124;-81
2023/05/26 08:46:58;;;;;;;10.15;6.57;;;;;;;;;;5051325;28;19999;-80
2023/05/26 08:49:24;;;;;;;11.32;6.35;;;;;;;;;;5051606;28;20060;-82
2023/05/26 08:51:59;;;;;;;11.43;6.32;;;;;;;;;;5049254;28;20068;-78
2023/05/26 08:54:25;;;;;;;11.93;6.30;;;;;;;;;;5051601;28;20040;-72
2023/05/26 08:56:51;;;;;;;11.23;5.93;;;;;;;;;;5050889;28;20061;-74
2023/05/26 08:59:17;;;;;;;12.15;5.93;;;;;;;;;;5051421;28;20125;-82
2023/05/26 09:01:42;;;;;;;7.07;5.30;;;;;;;;;;5050146;28;20029;-81
2023/05/26 09:04:08;;;;;;;13.43;5.43;;;;;;;;;;5050588;28;20057;-80
2023/05/26 09:06:35;;;;;;;9.60;5.82;;;;;;;;;;5050830;28;20025;-80
2023/05/26 09:09:01;;;;;;;10.40;5.88;;;;;;;;;;5050855;28;20048;-76
2023/05/26 09:11:30;;;;;;;8.70;5.20;;;;;;;;;;5051296;28;20484;-82
2023/05/26 09:13:56;;;;;;;8.52;5.47;;;;;;;;;;5050427;28;20025;-82
2023/05/26 09:16:26;;;;;;;11.18;5.88;;;;;;;;;;5050633;28;20386;-83
2023/05/26 09:18:56;;;;;;;8.20;5.47;;;;;;;;;;5050623;28;20625;-83
2023/05/26 09:21:22;;;;;;;7.65;5.07;;;;;;;;;;5050716;28;20271;-83
2023/05/26 09:23:55;;;;;;;8.38;5.57;;;;;;;;;;5050430;28;20028;-79
2023/05/26 09:26:35;;;;;;;9.27;5.53;;;;;;;;;;5050881;28;20027;-83
2023/05/26 09:29:02;;;;;;;8.75;5.03;;;;;;;;;;5050431;28;20021;-78
2023/05/26 09:31:37;;;;;;;12.98;6.47;;;;;;;;;;5050226;28;20112;-82
2023/05/26 09:34:03;;;;;;;8.45;5.07;;;;;;;;;;5050361;28;20055;-79
2023/05/26 09:36:28;;;;;;;11.38;5.47;;;;;;;;;;5050243;28;20425;-83
2023/05/26 09:38:53;;;;;;;9.05;5.32;;;;;;;;;;5049930;28;20045;-81
2023/05/26 09:41:20;;;;;;;8.90;5.22;;;;;;;;;;5050703;28;20577;-75
2023/05/26 09:43:49;;;;;;;8.85;5.18;;;;;;;;;;5050169;28;20029;-79
2023/05/26 09:46:22;;;;;;;7.75;5.28;;;;;;;;;;5050034;28;20043;-80
2023/05/26 09:48:51;;;;;;;8.80;5.20;;;;;;;;;;5048573;28;20043;-82
2023/05/26 09:51:20;;;;;;;8.55;4.97;;;;;;;;;;5049881;28;20091;-83
2023/05/26 09:53:46;;;;;;;8.77;4.77;;;;;;;;;;5049933;28;20456;-83
2023/05/26 09:56:16;;;;;;;7.82;5.05;;;;;;;;;;5050424;28;20032;-82
2023/05/26 09:58:45;;;;;;;7.80;4.78;;;;;;;;;;5050149;28;20040;-81
2023/05/26 10:01:11;;;;;;;7.30;4.53;;;;;;;;;;5050031;28;20028;-76
2023/05/26 10:03:37;;;;;;;9.60;5.15;;;;;;;;;;5048432;28;20040;-83
2023/05/26 10:06:04;;;;;;;10.80;4.97;;;;;;;;;;5050008;28;20029;-80
2023/05/26 10:08:30;;;;;;;9.50;4.60;;;;;;;;;;5049244;28;20385;-78
2023/05/26 10:10:56;;;;;;;8.38;4.85;;;;;;;;;;5050080;28;20080;-82
2023/05/26 10:13:22;;;;;;;8.02;4.28;;;;;;;;;;5049504;28;20489;-84
2023/05/26 10:15:48;;;;;;;8.05;4.40;;;;;;;;;;5048491;28;20029;-83
2023/05/26 10:18:14;;;;;;;9.45;4.22;;;;;;;;;;5049471;28;20386;-83
2023/05/26 10:20:45;;;;;;;6.55;4.00;;;;;;;;;;5049744;28;20374;-82
2023/05/26 10:23:19;;;;;;;7.97;4.00;;;;;;;;;;5048873;28;20040;-83
2023/05/26 10:26:07;;;;;;;8.43;3.95;;;;;;;;;;5049627;28;20111;-83
2023/05/26 10:28:46;;;;;;;6.70;4.28;;;;;;;;;;5049385;28;20029;-79
2023/05/26 10:31:11;;;;;;;9.27;4.55;;;;;;;;;;5049817;28;20024;-82
2023/05/26 10:33:42;;;;;;;12.18;4.68;;;;;;;;;;5049265;28;20025;-79
2023/05/26 10:36:09;;;;;;;8.65;4.10;;;;;;;;;;5047715;28;20119;-83
2023/05/26 10:38:42;;;;;;;6.43;4.00;;;;;;;;;;5048935;28;20541;-79
2023/05/26 10:41:12;;;;;;;8.20;4.40;;;;;;;;;;5049161;28;20064;-83
2023/05/26 10:43:38;;;;;;;9.70;4.05;;;;;;;;;;5048327;28;20029;-82
2023/05/26 10:46:05;;;;;;;8.30;3.80;;;;;;;;;;5048923;28;20045;-82
2023/05/26 10:48:37;;;;;;;6.85;4.30;;;;;;;;;;5049161;28;20060;-79
2023/05/26 10:51:02;;;;;;;8.18;4.05;;;;;;;;;;5049401;28;20037;-79
2023/05/26 10:53:45;;;;;;;9.45;4.00;;;;;;;;;;5048687;28;20029;-83
2023/05/26 10:56:13;;;;;;;8.23;4.10;;;;;;;;;;5048959;28;20024;-82
2023/05/26 10:58:47;;;;;;;9.88;4.15;;;;;;;;;;5048779;28;20394;-82
2023/05/26 11:01:19;;;;;;;9.38;4.30;;;;;;;;;;5048911;28;20029;-80
2023/05/26 11:03:46;;;;;;;9.52;4.47;;;;;;;;;;5048449;28;20040;-81
2023/05/26 11:06:14;;;;;;;9.07;4.00;;;;;;;;;;5048714;28;20044;-83
2023/05/26 11:08:50;;;;;;;10.50;4.10;;;;;;;;;;5048994;28;20031;-83
2023/05/26 11:11:29;;;;;;;7.82;4.03;;;;;;;;;;5049057;28;20511;-79
2023/05/26 11:14:12;;;;;;;6.70;3.80;;;;;;;;;;5048482;28;20071;-83
2023/05/26 11:16:40;;;;;;;9.10;4.05;;;;;;;;;;5048516;28;20017;-83
2023/05/26 11:19:07;;;;;;;7.57;3.92;;;;;;;;;;5048416;28;20063;-83
2023/05/26 11:21:34;;;;;;;7.85;3.90;;;;;;;;;;5048279;28;20032;-83
2023/05/26 11:24:00;;;;;;;5.82;3.80;;;;;;;;;;5048412;28;20112;-83
2023/05/26 11:26:30;;;;;;;8.55;3.92;;;;;;;;;;5048799;28;20077;-82
2023/05/26 11:28:56;;;;;;;5.90;3.95;;;;;;;;;;5048628;28;20029;-83
2023/05/26 11:31:27;;;;;;;7.07;3.67;;;;;;;;;;5048667;28;20040;-84
2023/05/26 11:33:52;;;;;;;6.03;3.97;;;;;;;;;;5048161;28;20029;-83
2023/05/26 11:36:19;;;;;;;6.95;3.92;;;;;;;;;;5048120;28;20036;-81
2023/05/26 11:38:47;;;;;;;6.55;3.70;;;;;;;;;;5048056;28;20135;-83
2023/05/26 11:41:15;;;;;;;6.40;3.70;;;;;;;;;;5048673;28;20497;-84
2023/05/26 11:43:43;;;;;;;10.10;4.05;;;;;;;;;;5048196;28;20082;-83
2023/05/26 11:46:10;;;;;;;7.03;3.70;;;;;;;;;;5048068;28;20055;-83
2023/05/26 11:48:40;;;;;;;7.75;3.65;;;;;;;;;;5048550;28;20162;-83
2023/05/26 11:51:22;;;;;;;5.85;3.80;;;;;;;;;;5047937;28;20074;-76
2023/05/26 11:53:53;;;;;;;6.82;3.85;;;;;;;;;;5047936;28;20055;-82
2023/05/26 11:56:18;;;;;;;6.65;3.80;;;;;;;;;;5052598;28;20025;-83
2023/05/26 11:58:54;;;;;;;10.10;3.58;;;;;;;;;;5052316;28;20029;-83
2023/05/26 12:01:27;;;;;;;7.75;3.10;;;;;;;;;;5052523;28;20036;-83
2023/05/26 12:03:56;;;;;;;7.97;3.80;;;;;;;;;;5052257;28;20089;-83
2023/05/26 12:06:23;;;;;;;8.68;3.70;;;;;;;;;;5052033;28;20806;-83
2023/05/26 12:08:50;;;;;;;9.60;3.78;;;;;;;;;;5051916;28;20079;-81
2023/05/26 12:11:18;;;;;;;9.05;3.50;;;;;;;;;;5052015;28;20036;-83
2023/05/26 12:13:44;;;;;;;11.48;3.90;;;;;;;;;;5051937;28;20021;-83
2023/05/26 12:16:33;;;;;;;8.13;3.90;;;;;;;;;;5051782;28;20021;-83
2023/05/26 12:19:02;;;;;;;7.57;3.55;;;;;;;;;;5052100;28;20036;-83
2023/05/26 12:21:29;;;;;;;7.05;3.42;;;;;;;;;;5051565;28;20025;-83
2023/05/26 12:23:56;;;;;;;7.68;3.67;;;;;;;;;;5051853;28;20048;-83
2023/05/26 12:26:25;;;;;;;7.72;3.80;;;;;;;;;;5051837;28;20028;-83
2023/05/26 12:29:13;;;;;;;9.18;3.95;;;;;;;;;;5051928;28;20040;-83
2023/05/26 12:31:42;;;;;;;9.52;4.00;;;;;;;;;;5051938;28;20029;-84
2023/05/26 12:34:09;;;;;;;8.25;3.50;;;;;;;;;;5051611;28;20610;-83
2023/05/26 12:36:34;;;;;;;10.98;3.60;;;;;;;;;;5051417;28;20021;-73
2023/05/26 12:39:01;;;;;;;6.43;3.25;;;;;;;;;;5051792;28;20055;-83
2023/05/26 12:41:26;;;;;;;6.68;3.40;;;;;;;;;;5051593;28;20025;-83
2023/05/26 12:43:51;;;;;;;8.65;3.42;;;;;;;;;;5051405;28;20025;-79
2023/05/26 12:46:17;;;;;;;7.38;3.63;;;;;;;;;;5050819;28;20025;-84
2023/05/26 12:48:43;;;;;;;10.05;3.50;;;;;;;;;;5051414;28;20523;-79
2023/05/26 12:51:08;;;;;;;10.60;3.38;;;;;;;;;;5050780;28;20040;-81
2023/05/26 12:53:33;;;;;;;10.02;3.80;;;;;;;;;;5051485;28;20075;-80
2023/05/26 12:55:59;;;;;;;8.82;3.80;;;;;;;;;;5051164;28;20031;-83
2023/05/26 12:58:24;;;;;;;7.35;3.63;;;;;;;;;;5051645;28;20032;-78
2023/05/26 13:00:50;;;;;;;8.43;3.45;;;;;;;;;;5050886;28;20496;-78
2023/05/26 13:03:20;;;;;;;11.25;3.40;;;;;;;;;;5051157;28;20036;-83
2023/05/26 13:05:50;;;;;;;6.72;3.53;;;;;;;;;;5049836;28;20104;-83
2023/05/26 13:08:16;;;;;;;10.27;3.35;;;;;;;;;;5050859;28;20033;-83
2023/05/26 13:10:45;;;;;;;11.77;3.63;;;;;;;;;;5051012;28;20028;-83
2023/05/26 13:13:12;;;;;;;9.70;3.47;;;;;;;;;;5051080;28;20504;-76
2023/05/26 13:15:39;;;;;;;9.30;3.45;;;;;;;;;;5050360;28;20027;-80
2023/05/26 13:18:04;;;;;;;8.93;3.55;;;;;;;;;;5050887;28;20032;-74
2023/05/26 13:20:30;;;;;;;10.80;3.65;;;;;;;;;;5050791;28;20025;-84
2023/05/26 13:22:55;;;;;;;9.00;3.55;;;;;;;;;;5050487;28;20459;-84
2023/05/26 13:25:21;;;;;;;6.88;3.47;;;;;;;;;;5050427;28;20052;-71
2023/05/26 13:27:48;;;;;;;6.72;3.53;;;;;;;;;;5050712;28;20562;-71
2023/05/26 13:30:14;;;;;;;7.80;3.80;;;;;;;;;;5050633;28;20033;-76
2023/05/26 13:32:40;;;;;;;11.52;3.35;;;;;;;;;;5050717;28;20110;-76
2023/05/26 13:35:06;;;;;;;9.45;3.72;;;;;;;;;;5050246;28;20049;-80
2023/05/26 13:37:31;;;;;;;7.88;3.45;;;;;;;;;;5050069;28;20122;-83
2023/05/26 13:39:57;;;;;;;6.50;3.38;;;;;;;;;;5050480;28;20059;-83
2023/05/26 13:42:22;;;;;;;10.80;3.60;;;;;;;;;;5050415;28;20020;-72
2023/05/26 13:44:47;;;;;;;9.05;3.45;;;;;;;;;;5061181;28;20037;-84
2023/05/26 13:47:13;;;;;;;9.27;3.75;;;;;;;;;;5070439;28;20442;-82
2023/05/26 13:49:38;;;;;;;10.20;3.80;;;;;;;;;;5070483;28;20036;-78
2023/05/26 13:52:04;;;;;;;9.70;3.80;;;;;;;;;;5069700;28;20056;-83
2023/05/26 13:54:30;;;;;;;8.13;3.50;;;;;;;;;;5070109;28;20164;-84
2023/05/26 13:56:56;;;;;;;6.75;3.58;;;;;;;;;;5069954;28;20599;-84
2023/05/26 13:59:22;;;;;;;9.48;3.60;;;;;;;;;;5070135;28;20047;-84
2023/05/26 14:01:48;;;;;;;9.05;3.92;;;;;;;;;;5069818;28;20527;-82
2023/05/26 14:04:13;;;;;;;12.75;3.50;;;;;;;;;;5070349;28;20024;-76
2023/05/26 14:06:39;;;;;;;7.60;3.78;;;;;;;;;;5069539;28;20035;-84
2023/05/26 14:09:12;;;;;;;7.95;3.35;;;;;;;;;;5069951;28;20039;-77
2023/05/26 14:11:38;;;;;;;8.00;3.60;;;;;;;;;;5069725;28;20028;-84
2023/05/26 14:14:04;;;;;;;9.68;3.88;;;;;;;;;;5069631;28;20070;-78
2023/05/26 14:16:29;;;;;;;8.70;3.60;;;;;;;;;;5069408;28;20052;-83
2023/05/26 14:18:55;;;;;;;7.85;3.63;;;;;;;;;;5067532;28;20431;-81
2023/05/26 14:21:20;;;;;;;9.10;3.80;;;;;;;;;;5069266;28;20082;-81
2023/05/26 14:23:46;;;;;;;12.63;3.53;;;;;;;;;;5069652;28;20034;-83
2023/05/26 14:26:11;;;;;;;7.93;3.45;;;;;;;;;;5069399;28;20017;-83
2023/05/26 14:28:37;;;;;;;12.82;3.88;;;;;;;;;;5069766;28;20523;-83
2023/05/26 14:31:02;;;;;;;9.98;3.70;;;;;;;;;;5069361;28;20086;-81
2023/05/26 14:33:28;;;;;;;10.90;3.83;;;;;;;;;;5069564;28;20027;-82
2023/05/26 14:35:54;;;;;;;10.23;3.97;;;;;;;;;;5069200;28;20052;-83
2023/05/26 14:38:21;;;;;;;11.13;3.50;;;;;;;;;;5069145;28;20070;-82